createdAt,value
2022-10-28T00:01:02.754Z,20.8
2022-10-28T00:02:07.497Z,22
2022-10-28T00:03:12.361Z,21.7
2022-10-28T00:04:16.631Z,25.1
2022-10-28T00:05:21.425Z,21.2
2022-10-28T00:06:25.917Z,22.4
2022-10-28T00:07:30.347Z,21.6
2022-10-28T00:08:34.838Z,21.8
2022-10-28T00:09:39.029Z,23.1
2022-10-28T00:10:44.094Z,20.6
2022-10-28T00:11:49.082Z,20.8
2022-10-28T00:12:53.261Z,21.4
2022-10-28T00:13:57.350Z,21.2
2022-10-28T00:15:01.827Z,20
2022-10-28T00:16:06.501Z,21
2022-10-28T00:17:11.230Z,21.1
2022-10-28T00:18:15.938Z,19.3
2022-10-28T00:19:20.457Z,22.5
2022-10-28T00:20:24.885Z,23
2022-10-28T00:21:29.125Z,21.7
2022-10-28T00:22:33.919Z,21
2022-10-28T00:23:38.497Z,22.3
2022-10-28T00:24:43.154Z,20.9
2022-10-28T00:25:47.421Z,20.9
2022-10-28T00:26:52.519Z,23.7
2022-10-28T00:27:56.763Z,20.4
2022-10-28T00:29:01.368Z,19.3
2022-10-28T00:30:08.831Z,21.1
2022-10-28T00:31:13.416Z,19.7
2022-10-28T00:32:17.582Z,20.2
2022-10-28T00:33:22.397Z,19
2022-10-28T00:34:26.950Z,20
2022-10-28T00:35:31.892Z,20
2022-10-28T00:36:36.510Z,21.2
2022-10-28T00:37:40.641Z,20.4
2022-10-28T00:38:45.729Z,19.9
2022-10-28T00:39:50.446Z,19
2022-10-28T00:40:55.414Z,21.2
2022-10-28T00:42:00.089Z,20.4
2022-10-28T00:43:04.673Z,22.5
2022-10-28T00:44:09.401Z,20.5
2022-10-28T00:45:24.370Z,20.3
2022-10-28T00:46:28.657Z,18.8
2022-10-28T00:47:38.770Z,20.8
2022-10-28T00:48:46.201Z,20.1
2022-10-28T00:49:50.662Z,23.4
2022-10-28T00:50:55.185Z,20.8
2022-10-28T00:52:00.229Z,20.1
2022-10-28T00:53:04.917Z,21.4
2022-10-28T00:54:14.901Z,20.3
2022-10-28T00:55:19.137Z,22.6
2022-10-28T00:56:23.753Z,23
2022-10-28T00:57:28.649Z,22.6
2022-10-28T00:58:33.042Z,20.9
2022-10-28T00:59:37.625Z,22.1
2022-10-28T01:00:42.301Z,22.2
2022-10-28T01:01:47.055Z,19.5
2022-10-28T01:02:51.389Z,19.1
2022-10-28T01:03:55.861Z,18.8
2022-10-28T01:05:00.423Z,19.6
2022-10-28T01:06:05.305Z,18.5
2022-10-28T01:07:10.387Z,18.2
2022-10-28T01:08:14.917Z,19.8
2022-10-28T01:09:19.432Z,19.3
2022-10-28T01:10:23.642Z,17.9
2022-10-28T01:11:36.189Z,18.6
2022-10-28T01:12:48.795Z,18.6
2022-10-28T01:13:58.301Z,17.1
2022-10-28T01:15:12.964Z,17.2
2022-10-28T01:16:22.877Z,17.5
2022-10-28T01:17:37.415Z,17.6
2022-10-28T01:18:52.744Z,18.5
2022-10-28T01:20:02.357Z,18
2022-10-28T01:21:17.208Z,19.2
2022-10-28T01:23:41.609Z,18.9
2022-10-28T01:24:54.464Z,17.6
2022-10-28T01:26:08.985Z,16.6
2022-10-28T01:27:16.242Z,18.1
2022-10-28T01:28:31.173Z,17.3
2022-10-28T01:29:35.797Z,17.1
2022-10-28T01:30:50.537Z,16.6
2022-10-28T01:32:05.285Z,18
2022-10-28T01:33:15.226Z,17.8
2022-10-28T01:34:19.417Z,18
2022-10-28T01:35:32.319Z,19.4
2022-10-28T01:36:45.205Z,18.8
2022-10-28T01:37:49.447Z,18.2
2022-10-28T01:38:56.680Z,18
2022-10-28T01:40:11.560Z,16.8
2022-10-28T01:41:21.552Z,17.4
2022-10-28T01:42:30.991Z,19.4
2022-10-28T01:43:35.449Z,17.5
2022-10-28T01:44:42.596Z,18.1
2022-10-28T01:45:52.967Z,16.7
2022-10-28T01:47:07.613Z,20.1
2022-10-28T01:48:17.389Z,17.1
2022-10-28T01:49:21.944Z,16.5
2022-10-28T01:50:26.752Z,17.6
2022-10-28T01:51:41.668Z,18.3
2022-10-28T01:52:46.351Z,18.8
2022-10-28T01:53:50.803Z,17.3
2022-10-28T01:54:55.508Z,17.1
2022-10-28T01:56:02.658Z,16.5
2022-10-28T01:57:07.228Z,18.1
2022-10-28T01:58:11.946Z,17.9
2022-10-28T01:59:16.710Z,16.6
2022-10-28T02:00:20.959Z,16.4
2022-10-28T02:01:25.398Z,15.9
2022-10-28T02:02:29.752Z,16.6
2022-10-28T02:03:34.253Z,16.6
2022-10-28T02:04:39.005Z,15.7
2022-10-28T02:05:43.340Z,14.6
2022-10-28T02:06:47.477Z,16
2022-10-28T02:07:52.244Z,15.1
2022-10-28T02:08:57.008Z,13
2022-10-28T02:10:04.849Z,13.8
2022-10-28T02:11:12.292Z,14.8
2022-10-28T02:12:21.492Z,13.5
2022-10-28T02:13:30.780Z,13.3
2022-10-28T02:14:35.337Z,13.9
2022-10-28T02:15:40.487Z,14.7
2022-10-28T02:16:47.847Z,14.1
2022-10-28T02:17:52.435Z,14.4
2022-10-28T02:19:01.828Z,13.1
2022-10-28T02:20:11.490Z,13.5
2022-10-28T02:21:26.424Z,13.3
2022-10-28T02:22:36.137Z,14.1
2022-10-28T02:23:45.653Z,12.5
2022-10-28T02:24:55.893Z,13.2
2022-10-28T02:26:06.650Z,12.2
2022-10-28T02:27:18.990Z,13
2022-10-28T02:28:33.701Z,14.1
2022-10-28T02:29:43.391Z,12.9
2022-10-28T02:30:47.929Z,12.5
2022-10-28T02:31:52.404Z,13.5
2022-10-28T02:32:57.412Z,13.4
2022-10-28T02:34:02.012Z,13.7
2022-10-28T02:35:06.360Z,13.4
2022-10-28T02:36:15.895Z,12.4
2022-10-28T02:37:20.545Z,13
2022-10-28T02:38:25.244Z,14
2022-10-28T02:39:32.486Z,13.1
2022-10-28T02:40:37.092Z,13.1
2022-10-28T02:41:41.572Z,12.6
2022-10-28T02:42:53.867Z,11.9
2022-10-28T02:43:58.192Z,11.7
2022-10-28T02:45:03.314Z,12.3
2022-10-28T02:46:12.924Z,11.7
2022-10-28T02:47:17.119Z,12.4
2022-10-28T02:48:21.776Z,11.7
2022-10-28T02:49:26.616Z,12
2022-10-28T02:50:31.569Z,12.4
2022-10-28T02:51:36.048Z,12.8
2022-10-28T02:52:46.005Z,12.3
2022-10-28T02:53:50.472Z,13.5
2022-10-28T02:55:00.198Z,12.3
2022-10-28T02:56:04.615Z,11.8
2022-10-28T02:57:09.192Z,11.1
2022-10-28T02:58:17.063Z,11
2022-10-28T02:59:21.544Z,10.7
2022-10-28T03:00:26.196Z,11.3
2022-10-28T03:01:30.686Z,10.2
2022-10-28T03:02:35.296Z,11.5
2022-10-28T03:03:39.804Z,10.5
2022-10-28T03:04:44.564Z,11.9
2022-10-28T03:05:49.104Z,11.2
2022-10-28T03:06:53.635Z,10
2022-10-28T03:07:58.065Z,10.7
2022-10-28T03:09:02.448Z,10.6
2022-10-28T03:10:07.143Z,10.8
2022-10-28T03:11:11.553Z,10
2022-10-28T03:12:16.381Z,11.4
2022-10-28T03:13:20.719Z,12.8
2022-10-28T03:14:25.317Z,11.7
2022-10-28T03:15:30.329Z,13.3
2022-10-28T03:16:35.020Z,12.9
2022-10-28T03:17:39.677Z,15.5
2022-10-28T03:18:44.163Z,13.3
2022-10-28T03:19:48.871Z,13.7
2022-10-28T03:20:55.310Z,13.7
2022-10-28T03:21:58.031Z,14
2022-10-28T03:23:02.428Z,14.6
2022-10-28T03:24:07.202Z,14.3
2022-10-28T03:25:11.599Z,13.8
2022-10-28T03:26:15.879Z,14.4
2022-10-28T03:27:20.479Z,13.2
2022-10-28T03:28:25.295Z,13.4
2022-10-28T03:29:29.655Z,13.3
2022-10-28T03:30:34.193Z,14.3
2022-10-28T03:31:38.746Z,11.6
2022-10-28T03:32:43.960Z,12.6
2022-10-28T03:33:48.427Z,12.2
2022-10-28T03:34:53.019Z,10.8
2022-10-28T03:35:57.586Z,11.4
2022-10-28T03:37:02.281Z,10.4
2022-10-28T03:38:07.069Z,9.9
2022-10-28T03:39:11.616Z,10.5
2022-10-28T03:40:16.278Z,10.1
2022-10-28T03:41:20.880Z,10.9
2022-10-28T03:42:25.075Z,10
2022-10-28T03:43:29.933Z,11.3
2022-10-28T03:44:34.543Z,10.4
2022-10-28T03:45:38.844Z,10.1
2022-10-28T03:46:43.456Z,10.7
2022-10-28T03:47:48.725Z,12.8
2022-10-28T03:48:53.216Z,10.9
2022-10-28T03:49:57.780Z,12.5
2022-10-28T03:51:02.248Z,10.9
2022-10-28T03:52:06.851Z,11.9
2022-10-28T03:53:11.439Z,11.1
2022-10-28T03:54:16.744Z,11.9
2022-10-28T03:55:21.180Z,11.2
2022-10-28T03:56:25.588Z,11
2022-10-28T03:57:29.725Z,12.4
2022-10-28T03:58:36.199Z,11.7
2022-10-28T03:59:38.540Z,12.8
2022-10-28T04:00:43.093Z,11
2022-10-28T04:01:50.212Z,11.3
2022-10-28T04:02:54.624Z,13
2022-10-28T04:03:59.128Z,11.4
2022-10-28T04:05:03.831Z,11.2
2022-10-28T04:06:08.904Z,10.8
2022-10-28T04:07:13.238Z,10.5
2022-10-28T04:08:17.780Z,10.9
2022-10-28T04:09:22.383Z,10.1
2022-10-28T04:10:26.980Z,11.6
2022-10-28T04:11:31.572Z,10.7
2022-10-28T04:12:36.604Z,11.8
2022-10-28T04:13:41.496Z,11.3
2022-10-28T04:14:46.344Z,11.1
2022-10-28T04:15:51.195Z,11
2022-10-28T04:16:55.851Z,10.5
2022-10-28T04:18:00.359Z,11.6
2022-10-28T04:19:04.807Z,11.8
2022-10-28T04:20:09.340Z,11.7
2022-10-28T04:21:14.225Z,11.7
2022-10-28T04:22:19.171Z,10.5
2022-10-28T04:23:23.703Z,10.8
2022-10-28T04:24:28.483Z,11.6
2022-10-28T04:25:33.340Z,10.1
2022-10-28T04:26:38.371Z,10.5
2022-10-28T04:27:43.164Z,12.1
2022-10-28T04:28:47.781Z,10.3
2022-10-28T04:29:52.636Z,11.1
2022-10-28T04:30:57.011Z,10.9
2022-10-28T04:32:02.049Z,11.5
2022-10-28T04:33:06.703Z,12.1
2022-10-28T04:34:11.248Z,16.3
2022-10-28T04:35:15.745Z,15.1
2022-10-28T04:36:20.435Z,12.6
2022-10-28T04:37:25.096Z,11.3
2022-10-28T04:38:29.954Z,12.1
2022-10-28T04:39:34.508Z,12.4
2022-10-28T04:40:38.679Z,11.5
2022-10-28T04:41:43.071Z,11
2022-10-28T04:42:47.431Z,11
2022-10-28T04:43:52.209Z,10.1
2022-10-28T04:44:56.787Z,11.4
2022-10-28T04:46:01.432Z,10.2
2022-10-28T04:47:05.956Z,9.4
2022-10-28T04:48:10.572Z,10.6
2022-10-28T04:49:14.955Z,10.4
2022-10-28T04:50:19.580Z,11.2
2022-10-28T04:51:25.188Z,10.7
2022-10-28T04:52:30.815Z,8.9
2022-10-28T04:53:35.392Z,9.5
2022-10-28T04:54:40.071Z,9.3
2022-10-28T04:55:44.805Z,10.2
2022-10-28T04:56:49.179Z,9.5
2022-10-28T04:57:53.751Z,9.4
2022-10-28T04:58:58.388Z,9.2
2022-10-28T05:00:03.131Z,9.4
2022-10-28T05:01:07.813Z,9.7
2022-10-28T05:02:12.300Z,9
2022-10-28T05:03:16.704Z,10.3
2022-10-28T05:04:20.915Z,8.3
2022-10-28T05:05:25.690Z,7.6
2022-10-28T05:06:30.011Z,9.6
2022-10-28T05:07:34.238Z,10.3
2022-10-28T05:08:38.648Z,9.7
2022-10-28T05:09:42.884Z,9.4
2022-10-28T05:10:47.555Z,10.4
2022-10-28T05:11:52.005Z,10.4
2022-10-28T05:12:56.764Z,9.7
2022-10-28T05:14:01.325Z,8.6
2022-10-28T05:15:05.912Z,8.4
2022-10-28T05:16:10.599Z,9.3
2022-10-28T05:17:15.269Z,9.3
2022-10-28T05:18:19.887Z,8.3
2022-10-28T05:19:24.167Z,9.7
2022-10-28T05:20:28.687Z,8.6
2022-10-28T05:21:32.935Z,8.8
2022-10-28T05:22:37.662Z,9.2
2022-10-28T05:23:49.707Z,8.8
2022-10-28T05:24:54.236Z,8.7
2022-10-28T05:25:58.603Z,9.1
2022-10-28T05:27:03.056Z,9.3
2022-10-28T05:28:07.662Z,9.7
2022-10-28T05:29:12.326Z,9
2022-10-28T05:30:16.891Z,11
2022-10-28T05:31:21.434Z,10.2
2022-10-28T05:32:26.447Z,9.3
2022-10-28T05:33:30.719Z,9.3
2022-10-28T05:34:35.291Z,10.8
2022-10-28T05:35:39.763Z,9.6
2022-10-28T05:36:44.029Z,8.3
2022-10-28T05:37:48.659Z,10.2
2022-10-28T05:38:53.155Z,10.5
2022-10-28T05:39:57.836Z,8.4
2022-10-28T05:41:02.399Z,8.7
2022-10-28T05:42:06.815Z,8.7
2022-10-28T05:43:11.099Z,9.2
2022-10-28T05:44:15.523Z,8.1
2022-10-28T05:45:19.842Z,8.8
2022-10-28T05:46:24.211Z,8.7
2022-10-28T05:47:28.364Z,9.8
2022-10-28T05:48:33.539Z,8.6
2022-10-28T05:49:38.191Z,9.7
2022-10-28T05:50:42.815Z,8.8
2022-10-28T05:51:47.339Z,8.9
2022-10-28T05:52:51.819Z,9.4
2022-10-28T05:53:55.981Z,8.1
2022-10-28T05:55:01.064Z,8.1
2022-10-28T05:56:05.736Z,8.9
2022-10-28T05:57:10.395Z,9.3
2022-10-28T05:58:14.879Z,8.8
2022-10-28T05:59:19.545Z,9
2022-10-28T06:00:24.111Z,9.6
2022-10-28T06:01:28.901Z,8.4
2022-10-28T06:02:33.491Z,8
2022-10-28T06:03:38.249Z,8.3
2022-10-28T06:04:42.645Z,8.6
2022-10-28T06:05:47.399Z,7.9
2022-10-28T06:06:51.815Z,8.3
2022-10-28T06:07:56.335Z,7.9
2022-10-28T06:09:01.191Z,8.5
2022-10-28T06:10:05.590Z,8.7
2022-10-28T06:11:08.918Z,8.2
2022-10-28T06:12:13.325Z,8.3
2022-10-28T06:13:17.816Z,9.8
2022-10-28T06:14:22.313Z,9
2022-10-28T06:15:27.299Z,9.2
2022-10-28T06:16:32.011Z,8.1
2022-10-28T06:17:36.431Z,7.4
2022-10-28T06:18:41.082Z,9.3
2022-10-28T06:19:45.686Z,8.5
2022-10-28T06:20:50.085Z,8.4
2022-10-28T06:21:58.533Z,8.4
2022-10-28T06:23:02.799Z,8.4
2022-10-28T06:24:11.263Z,8.9
2022-10-28T06:25:12.243Z,8.9
2022-10-28T06:26:17.219Z,9.2
2022-10-28T06:27:22.467Z,8.8
2022-10-28T06:28:26.992Z,8.3
2022-10-28T06:29:31.553Z,8.5
2022-10-28T06:30:36.160Z,7.9
2022-10-28T06:31:40.717Z,8.2
2022-10-28T06:32:45.543Z,8
2022-10-28T06:33:50.108Z,9
2022-10-28T06:34:54.629Z,8.6
2022-10-28T06:35:59.278Z,8.2
2022-10-28T06:37:03.715Z,9
2022-10-28T06:38:09.504Z,10.2
2022-10-28T06:39:13.514Z,9.7
2022-10-28T06:40:18.246Z,8.4
2022-10-28T06:41:25.964Z,9
2022-10-28T06:42:30.249Z,8.6
2022-10-28T06:43:34.993Z,9.9
2022-10-28T06:44:39.898Z,8.4
2022-10-28T06:45:44.190Z,8.8
2022-10-28T06:46:50.313Z,10
2022-10-28T06:47:54.954Z,9.3
2022-10-28T06:48:59.880Z,8.6
2022-10-28T06:50:04.189Z,9
2022-10-28T06:51:08.538Z,9.4
2022-10-28T06:52:12.734Z,8
2022-10-28T06:53:17.391Z,8.7
2022-10-28T06:54:21.869Z,9.2
2022-10-28T06:55:26.168Z,8.9
2022-10-28T06:56:30.683Z,8.8
2022-10-28T06:57:35.123Z,8.2
2022-10-28T06:58:39.348Z,10.4
2022-10-28T06:59:44.061Z,9.2
2022-10-28T07:00:48.433Z,8.5
2022-10-28T07:01:52.978Z,8.5
2022-10-28T07:02:57.384Z,8.7
2022-10-28T07:04:01.860Z,9.5
2022-10-28T07:05:06.526Z,9.2
2022-10-28T07:06:11.144Z,9.4
2022-10-28T07:07:16.163Z,9.2
2022-10-28T07:08:20.745Z,10.1
2022-10-28T07:09:25.297Z,9
2022-10-28T07:10:30.067Z,9
2022-10-28T07:11:34.663Z,9.1
2022-10-28T07:12:39.167Z,8.7
2022-10-28T07:13:44.357Z,8.6
2022-10-28T07:14:48.286Z,10
2022-10-28T07:15:52.836Z,9
2022-10-28T07:16:57.088Z,8.6
2022-10-28T07:18:01.673Z,9.5
2022-10-28T07:19:06.674Z,8.9
2022-10-28T07:20:10.935Z,9.7
2022-10-28T07:21:15.783Z,8.5
2022-10-28T07:22:23.515Z,9.1
2022-10-28T07:23:25.193Z,9.3
2022-10-28T07:24:29.729Z,9.9
2022-10-28T07:25:34.529Z,8.1
2022-10-28T07:26:39.013Z,9.3
2022-10-28T07:27:43.710Z,8.7
2022-10-28T07:28:48.231Z,8.1
2022-10-28T07:29:52.956Z,8.4
2022-10-28T07:30:57.371Z,8.7
2022-10-28T07:32:01.974Z,7.8
2022-10-28T07:33:06.857Z,8.9
2022-10-28T07:34:11.442Z,8.6
2022-10-28T07:35:15.890Z,8.8
2022-10-28T07:36:22.099Z,9.3
2022-10-28T07:37:26.972Z,8.8
2022-10-28T07:38:31.285Z,8
2022-10-28T07:40:40.256Z,9.1
2022-10-28T07:41:45.024Z,8.2
2022-10-28T07:42:49.892Z,8.5
2022-10-28T07:43:54.340Z,8
2022-10-28T07:44:58.936Z,8.9
2022-10-28T07:46:03.720Z,8.4
2022-10-28T07:47:08.115Z,8.4
2022-10-28T07:48:12.653Z,6.9
2022-10-28T07:49:17.259Z,7.6
2022-10-28T07:50:22.019Z,7.2
2022-10-28T07:51:26.423Z,8.2
2022-10-28T07:52:31.062Z,8.5
2022-10-28T07:53:35.822Z,8.9
2022-10-28T07:54:40.209Z,8.2
2022-10-28T07:55:44.673Z,8.5
2022-10-28T07:56:56.824Z,9
2022-10-28T07:58:01.210Z,8.5
2022-10-28T07:59:05.644Z,8
2022-10-28T08:00:10.246Z,8.9
2022-10-28T08:01:15.123Z,8.7
2022-10-28T08:02:19.438Z,8
2022-10-28T08:03:31.071Z,8.8
2022-10-28T08:04:28.783Z,8.6
2022-10-28T08:05:33.253Z,8.6
2022-10-28T08:06:37.930Z,9.3
2022-10-28T08:07:42.440Z,10.3
2022-10-28T08:08:47.027Z,8.4
2022-10-28T08:09:51.802Z,9.7
2022-10-28T08:10:56.447Z,10
2022-10-28T08:12:00.986Z,10.2
2022-10-28T08:13:05.459Z,9.6
2022-10-28T08:14:10.346Z,10.2
2022-10-28T08:15:15.083Z,9.4
2022-10-28T08:16:19.266Z,9.5
2022-10-28T08:17:24.017Z,9
2022-10-28T08:18:28.500Z,9.8
2022-10-28T08:19:33.235Z,8.1
2022-10-28T08:20:37.634Z,8.9
2022-10-28T08:21:42.287Z,8.8
2022-10-28T08:22:46.790Z,9.3
2022-10-28T08:23:51.469Z,8.1
2022-10-28T08:24:56.105Z,9.5
2022-10-28T08:26:00.665Z,10.2
2022-10-28T08:27:05.448Z,9.5
2022-10-28T08:28:10.228Z,8.3
2022-10-28T08:29:15.346Z,9.6
2022-10-28T08:30:19.758Z,9
2022-10-28T08:31:24.451Z,8
2022-10-28T08:32:28.633Z,9.4
2022-10-28T08:33:32.890Z,8.3
2022-10-28T08:34:39.225Z,9.8
2022-10-28T08:35:42.088Z,8.6
2022-10-28T08:36:51.730Z,8.3
2022-10-28T08:37:56.749Z,7.5
2022-10-28T08:39:00.781Z,9.3
2022-10-28T08:40:05.377Z,7.5
2022-10-28T08:41:10.006Z,7.8
2022-10-28T08:42:22.890Z,8.7
2022-10-28T08:43:40.210Z,8.5
2022-10-28T08:44:42.024Z,8.3
2022-10-28T08:45:51.661Z,8.3
2022-10-28T08:47:04.126Z,7.2
2022-10-28T08:48:13.889Z,7.5
2022-10-28T08:49:26.034Z,6.7
2022-10-28T08:50:30.485Z,7.6
2022-10-28T08:51:34.711Z,7.2
2022-10-28T08:52:39.402Z,7.6
2022-10-28T08:53:52.098Z,7.2
2022-10-28T08:54:59.247Z,6.8
2022-10-28T08:56:06.896Z,5.6
2022-10-28T08:57:17.819Z,7.1
2022-10-28T08:58:22.185Z,6.4
2022-10-28T08:59:26.644Z,6.2
2022-10-28T09:00:36.485Z,5.6
2022-10-28T09:01:41.412Z,6.4
2022-10-28T09:02:48.951Z,5.9
2022-10-28T09:03:58.270Z,6
2022-10-28T09:05:02.909Z,5.2
2022-10-28T09:06:15.640Z,6.4
2022-10-28T09:07:20.140Z,6
2022-10-28T09:08:24.764Z,6
2022-10-28T09:09:29.161Z,6.5
2022-10-28T09:10:33.660Z,6
2022-10-28T09:11:43.121Z,6.3
2022-10-28T09:12:47.580Z,5.4
2022-10-28T09:13:59.892Z,5.8
2022-10-28T09:15:10.008Z,5.6
2022-10-28T09:16:15.939Z,5.7
2022-10-28T09:17:24.044Z,5.3
2022-10-28T09:18:28.569Z,5.1
2022-10-28T09:19:41.010Z,5.8
2022-10-28T09:20:51.235Z,5.7
2022-10-28T09:21:55.921Z,5.7
2022-10-28T09:23:05.562Z,5
2022-10-28T09:24:09.662Z,5.9
2022-10-28T09:25:18.989Z,5.5
2022-10-28T09:26:26.582Z,5.6
2022-10-28T09:27:33.708Z,5.1
2022-10-28T09:28:41.420Z,5.2
2022-10-28T09:29:54.131Z,5.6
2022-10-28T09:31:06.357Z,5.4
2022-10-28T09:32:21.220Z,6.1
2022-10-28T09:40:37.301Z,4.9
2022-10-28T09:41:48.285Z,4.9
2022-10-28T09:43:07.326Z,4.7
2022-10-28T09:45:08.372Z,4.7
2022-10-28T09:49:04.030Z,5
2022-10-28T09:50:11.856Z,5
2022-10-28T09:54:41.283Z,4.8
2022-10-28T09:56:55.852Z,4.8
2022-10-28T09:58:22.596Z,4.1
2022-10-28T09:59:38.355Z,4.4
2022-10-28T10:00:51.212Z,4.4
2022-10-28T10:02:02.426Z,4.7
2022-10-28T10:03:17.844Z,4.6
2022-10-28T10:04:35.227Z,5.3
2022-10-28T10:05:54.792Z,4.5
2022-10-28T10:07:13.283Z,4.7
2022-10-28T10:08:31.407Z,4.6
2022-10-28T10:09:46.667Z,4.4
2022-10-28T10:11:00.559Z,4.4
2022-10-28T10:12:17.377Z,4.5
2022-10-28T10:13:45.731Z,4.5
2022-10-28T10:14:56.765Z,4.4
2022-10-28T10:16:14.749Z,4.1
2022-10-28T10:17:50.530Z,3.9
2022-10-28T10:18:56.561Z,4.6
2022-10-28T10:20:00.969Z,4.1
2022-10-28T10:21:13.203Z,4.4
2022-10-28T10:22:17.904Z,3.9
2022-10-28T10:23:30.601Z,4.5
2022-10-28T10:24:34.621Z,4.4
2022-10-28T10:25:38.703Z,4.1
2022-10-28T10:26:43.350Z,3.8
2022-10-28T10:27:47.903Z,3.9
2022-10-28T10:28:57.759Z,4.3
2022-10-28T10:30:02.358Z,4.3
2022-10-28T10:31:06.716Z,4.8
2022-10-28T10:32:11.344Z,4.5
2022-10-28T10:33:18.334Z,4.2
2022-10-28T10:34:22.478Z,4.1
2022-10-28T10:35:26.552Z,4.4
2022-10-28T10:36:30.875Z,4.2
2022-10-28T10:37:36.001Z,4.6
2022-10-28T10:38:42.958Z,4.6
2022-10-28T10:39:52.624Z,4.6
2022-10-28T10:40:59.859Z,4.4
2022-10-28T10:42:04.487Z,4.4
2022-10-28T10:43:16.640Z,4.1
2022-10-28T10:44:21.299Z,4.8
2022-10-28T10:45:25.715Z,4.1
2022-10-28T10:46:30.457Z,4.1
2022-10-28T10:47:34.999Z,4.2
2022-10-28T10:48:39.105Z,4
2022-10-28T10:49:43.660Z,4.2
2022-10-28T10:50:48.165Z,4.4
2022-10-28T10:51:52.268Z,5.3
2022-10-28T10:52:59.408Z,5.1
2022-10-28T10:54:03.555Z,4.8
2022-10-28T10:55:08.108Z,5
2022-10-28T10:56:12.916Z,5.1
2022-10-28T10:57:17.243Z,5.3
2022-10-28T10:58:21.979Z,4.6
2022-10-28T10:59:26.494Z,5.1
2022-10-28T11:00:31.160Z,5.3
2022-10-28T11:01:38.815Z,4.7
2022-10-28T11:02:43.508Z,4.8
2022-10-28T11:03:48.010Z,4.1
2022-10-28T11:04:55.050Z,5.2
2022-10-28T11:06:18.715Z,5.1
2022-10-28T11:07:04.199Z,5.9
2022-10-28T11:08:08.811Z,5.4
2022-10-28T11:10:18.031Z,4.7
2022-10-28T11:11:27.773Z,5.5
2022-10-28T11:12:37.855Z,4.3
2022-10-28T11:13:45.110Z,4.2
2022-10-28T11:14:47.124Z,5.4
2022-10-28T11:15:56.804Z,5.4
2022-10-28T11:17:01.308Z,5.1
2022-10-28T11:18:05.933Z,5.5
2022-10-28T11:19:18.624Z,5.3
2022-10-28T11:20:28.321Z,5.6
2022-10-28T11:21:38.001Z,4.4
2022-10-28T11:22:47.600Z,4.9
2022-10-28T11:23:54.784Z,4.5
2022-10-28T11:25:09.612Z,5.5
2022-10-28T11:26:24.439Z,5.6
2022-10-28T11:27:29.000Z,5.9
2022-10-28T11:28:33.486Z,4.9
2022-10-28T11:29:48.396Z,5
2022-10-28T11:30:53.044Z,6.1
2022-10-28T11:31:57.425Z,4.7
2022-10-28T11:33:24.624Z,5.7
2022-10-28T11:34:14.603Z,5.2
2022-10-28T11:35:29.622Z,5.2
2022-10-28T11:36:39.358Z,5.2
2022-10-28T11:37:52.074Z,5
2022-10-28T11:39:06.764Z,4.7
2022-10-28T11:40:16.448Z,4.3
2022-10-28T11:41:29.364Z,4.7
2022-10-28T11:42:38.918Z,4.1
2022-10-28T11:43:48.649Z,5.3
2022-10-28T11:44:51.175Z,4.9
2022-10-28T11:46:01.334Z,4.8
2022-10-28T11:47:15.950Z,4.1
2022-10-28T11:48:25.631Z,4.8
2022-10-28T11:49:35.327Z,5.5
2022-10-28T11:50:50.111Z,5
2022-10-28T11:51:59.841Z,4.8
2022-10-28T11:53:07.402Z,4.6
2022-10-28T11:54:22.002Z,4.8
2022-10-28T11:55:37.042Z,5.1
2022-10-28T11:56:51.714Z,5.2
2022-10-28T11:58:01.883Z,5.2
2022-10-28T11:59:16.665Z,5.5
2022-10-28T12:00:26.810Z,4.6
2022-10-28T12:01:41.908Z,4.7
2022-10-28T12:02:56.842Z,6
2022-10-28T12:04:00.910Z,5
2022-10-28T12:05:13.664Z,5.2
2022-10-28T12:06:18.324Z,3.9
2022-10-28T12:07:30.495Z,3.9
2022-10-28T12:08:43.230Z,4.3
2022-10-28T12:09:57.958Z,4.7
2022-10-28T12:11:12.638Z,5
2022-10-28T12:12:22.312Z,4.9
2022-10-28T12:13:34.134Z,4.1
2022-10-28T12:14:48.818Z,5
2022-10-28T12:15:58.417Z,4.9
2022-10-28T12:17:05.630Z,4.9
2022-10-28T12:18:20.465Z,5
2022-10-28T12:19:35.261Z,5.2
2022-10-28T12:20:39.997Z,5.2
2022-10-28T12:21:49.524Z,4.9
2022-10-28T12:23:01.795Z,4.9
2022-10-28T12:24:06.307Z,4.1
2022-10-28T12:25:16.607Z,4.3
2022-10-28T12:26:23.632Z,4.8
2022-10-28T12:27:30.602Z,4.7
2022-10-28T12:28:34.899Z,4.9
2022-10-28T12:29:44.724Z,5.3
2022-10-28T12:30:49.145Z,5.1
2022-10-28T12:31:53.993Z,4.5
2022-10-28T12:33:03.350Z,4.7
2022-10-28T12:34:07.454Z,5.5
2022-10-28T12:35:14.596Z,5.4
2022-10-28T12:36:22.445Z,5.4
2022-10-28T12:37:31.909Z,5.7
2022-10-28T12:38:39.096Z,4.9
2022-10-28T12:39:43.652Z,5.5
2022-10-28T12:40:48.233Z,5.1
2022-10-28T12:42:00.968Z,5.8
2022-10-28T12:43:05.395Z,5.5
2022-10-28T12:44:14.683Z,4.6
2022-10-28T12:45:21.801Z,5
2022-10-28T12:46:25.981Z,4.7
2022-10-28T12:59:19.767Z,4.4
2022-10-28T13:00:37.198Z,5
2022-10-28T13:01:55.923Z,4.4
2022-10-28T13:03:03.750Z,5.2
2022-10-28T13:05:15.364Z,5.2
2022-10-28T13:06:22.695Z,4.7
2022-10-28T13:07:45.275Z,4.8
2022-10-28T13:09:02.407Z,4.9
2022-10-28T13:10:14.803Z,4.8
2022-10-28T13:12:35.164Z,4.9
2022-10-28T13:13:39.867Z,4.9
2022-10-28T13:14:54.518Z,5.2
2022-10-28T13:16:01.904Z,4.5
2022-10-28T13:17:11.430Z,4.5
2022-10-28T13:18:23.613Z,4.4
2022-10-28T13:19:33.453Z,4.7
2022-10-28T13:20:42.889Z,5.3
2022-10-28T13:21:52.589Z,4.1
2022-10-28T13:23:07.294Z,4.8
2022-10-28T13:24:17.197Z,4.5
2022-10-28T13:25:29.841Z,5.3
2022-10-28T13:26:42.704Z,4.8
2022-10-28T13:27:47.157Z,5.5
2022-10-28T13:28:56.949Z,5.4
2022-10-28T13:30:01.551Z,4.4
2022-10-28T13:31:06.719Z,5.6
2022-10-28T13:32:11.800Z,5
2022-10-28T13:33:26.428Z,4.9
2022-10-28T13:34:30.530Z,5.4
2022-10-28T13:35:35.653Z,5.5
2022-10-28T13:36:40.309Z,5
2022-10-28T13:37:44.910Z,4.9
2022-10-28T13:38:49.568Z,4.6
2022-10-28T13:39:56.718Z,4.6
2022-10-28T13:41:01.364Z,4.8
2022-10-28T13:42:05.936Z,4.6
2022-10-28T13:43:13.052Z,5.8
2022-10-28T13:44:20.046Z,5.4
2022-10-28T13:45:24.237Z,5.7
2022-10-28T13:46:38.904Z,5.8
2022-10-28T13:47:53.819Z,8.1
2022-10-28T13:49:03.418Z,9
2022-10-28T13:50:18.178Z,9.1
2022-10-28T13:51:22.267Z,6.6
2022-10-28T13:52:26.407Z,6.8
2022-10-28T13:53:30.664Z,8.1
2022-10-28T13:54:43.163Z,9.6
2022-10-28T13:55:47.235Z,8.4
2022-10-28T13:56:51.435Z,7.9
2022-10-28T13:57:56.419Z,10.8
2022-10-28T13:59:00.661Z,7
2022-10-28T14:00:13.180Z,7.8
2022-10-28T14:01:17.713Z,6.4
2022-10-28T14:02:35.418Z,7
2022-10-28T14:03:39.395Z,13.2
2022-10-28T14:04:43.917Z,10.6
2022-10-28T14:05:56.315Z,12.7
2022-10-28T14:07:00.748Z,10.6
2022-10-28T14:08:12.935Z,7.2
2022-10-28T14:09:25.235Z,7.1
2022-10-28T14:10:29.861Z,7.1
2022-10-28T14:11:34.375Z,7.4
2022-10-28T14:12:38.906Z,7.2
2022-10-28T14:13:43.624Z,5.8
2022-10-28T14:14:48.267Z,6.8
2022-10-28T14:15:58.052Z,6
2022-10-28T14:17:12.707Z,6.4
2022-10-28T14:18:42.054Z,6.7
2022-10-28T14:19:27.468Z,6.2
2022-10-28T14:20:31.811Z,5.6
2022-10-28T14:21:36.564Z,6.1
2022-10-28T14:22:43.693Z,6.2
2022-10-28T14:23:48.216Z,5.8
2022-10-28T14:25:02.998Z,6.1
2022-10-28T14:26:07.522Z,10.4
2022-10-28T14:27:11.798Z,5.7
2022-10-28T14:28:16.692Z,6.6
2022-10-28T14:29:29.022Z,6.2
2022-10-28T14:30:45.707Z,5.7
2022-10-28T14:31:58.519Z,7.6
2022-10-28T14:33:02.741Z,6.5
2022-10-28T14:34:12.305Z,7.1
2022-10-28T14:35:16.385Z,6.7
2022-10-28T14:36:21.110Z,7.8
2022-10-28T14:37:30.857Z,6.8
2022-10-28T14:38:41.380Z,8.2
2022-10-28T14:39:54.154Z,8.6
2022-10-28T14:41:03.785Z,9.1
2022-10-28T14:42:18.629Z,9.6
2022-10-28T14:43:31.249Z,8.3
2022-10-28T14:44:44.003Z,7.5
2022-10-28T14:45:58.805Z,7.8
2022-10-28T14:47:08.537Z,7.9
2022-10-28T14:48:18.357Z,7.3
2022-10-28T14:49:22.717Z,7.7
2022-10-28T14:50:32.421Z,6.5
2022-10-28T14:51:39.566Z,7.3
2022-10-28T14:52:44.238Z,7.3
2022-10-28T14:53:48.851Z,6.4
2022-10-28T14:54:55.956Z,6.4
2022-10-28T14:56:00.457Z,6.9
2022-10-28T14:57:05.122Z,7.4
2022-10-28T14:58:09.675Z,6.6
2022-10-28T14:59:22.433Z,6.4
2022-10-28T15:00:26.541Z,6.9
2022-10-28T15:01:31.088Z,6.2
2022-10-28T15:02:38.456Z,5.7
2022-10-28T15:03:42.908Z,5.4
2022-10-28T15:04:52.462Z,5.8
2022-10-28T15:06:07.473Z,5.4
2022-10-28T15:07:22.081Z,5.5
2022-10-28T15:08:26.701Z,6.7
2022-10-28T15:09:31.416Z,6.5
2022-10-28T15:10:37.382Z,7.3
2022-10-28T15:11:40.952Z,6.3
2022-10-28T15:12:45.471Z,6.1
2022-10-28T15:13:49.525Z,7
2022-10-28T15:14:53.612Z,7.5
2022-10-28T15:15:58.298Z,6.2
2022-10-28T15:17:02.308Z,6.7
2022-10-28T15:18:12.003Z,6.1
2022-10-28T15:19:24.832Z,6.6
2022-10-28T15:20:29.399Z,6.6
2022-10-28T15:21:33.594Z,6.8
2022-10-28T15:22:38.100Z,6.9
2022-10-28T15:23:42.598Z,6.8
2022-10-28T15:24:47.294Z,7.5
2022-10-28T15:25:56.825Z,8.4
2022-10-28T15:27:11.737Z,7.8
2022-10-28T15:28:16.416Z,6.9
2022-10-28T15:29:20.984Z,6.9
2022-10-28T15:30:25.500Z,6.9
2022-10-28T15:31:30.163Z,7.6
2022-10-28T15:32:34.707Z,6.9
2022-10-28T15:33:39.355Z,7.7
2022-10-28T15:34:44.053Z,6.3
2022-10-28T15:35:48.552Z,7.3
2022-10-28T15:36:53.287Z,7.3
2022-10-28T15:37:57.922Z,7.8
2022-10-28T15:39:02.426Z,6.9
2022-10-28T15:40:11.372Z,6.6
2022-10-28T15:41:22.240Z,7.2
2022-10-28T15:42:26.791Z,8.1
2022-10-28T15:43:41.649Z,6.8
2022-10-28T15:44:46.147Z,7.8
2022-10-28T15:45:50.695Z,7.4
2022-10-28T15:46:55.552Z,7.4